Time;durP1;ratioP1;P1;durP2;ratioP2;P2;SDS_P1;SDS_P2;PMS_P1;PMS_P2;Temp;Humidity;BMP_temperature;BMP_pressure;BME280_temperature;BME280_humidity;BME280_pressure;Samples;Min_cycle;Max_cycle;Signal;HPM_P1;HPM_P2
2024/04/07 00:02:07;;;;;;;;;;;19.20;99.90;;;;;;5036131;28;19999;-87
2024/04/07 00:04:32;;;;;;;;;;;19.30;99.90;;;;;;5051491;28;19924;-87
2024/04/07 00:06:58;;;;;;;;;;;19.30;99.90;;;;;;5050877;28;19924;-87
2024/04/07 00:09:23;;;;;;;;;;;19.40;99.90;;;;;;5055022;28;19917;-87
2024/04/07 00:11:49;;;;;;;;;;;19.40;99.90;;;;;;5045231;28;19949;-87
2024/04/07 00:14:14;;;;;;;;;;;19.50;99.90;;;;;;5050281;28;19921;-87
2024/04/07 00:16:40;;;;;;;;;;;19.50;99.90;;;;;;5056531;28;20011;-88
2024/04/07 00:19:06;;;;;;;;;;;19.60;99.90;;;;;;5052097;28;19987;-87
2024/04/07 00:21:31;;;;;;;;;;;19.60;99.90;;;;;;5052764;28;19996;-86
2024/04/07 00:24:00;;;;;;;;;;;19.60;99.90;;;;;;5056480;28;19948;-87
2024/04/07 00:26:26;;;;;;;;;;;19.60;99.90;;;;;;5043885;28;19917;-87
2024/04/07 00:28:51;;;;;;;;;;;19.60;99.90;;;;;;5032509;28;19943;-88
2024/04/07 00:31:16;;;;;;;;;;;19.60;99.90;;;;;;5052711;28;19913;-86
2024/04/07 00:33:42;;;;;;;;;;;19.60;99.90;;;;;;5038611;28;19913;-87
2024/04/07 00:36:09;;;;;;;;;;;19.60;99.90;;;;;;5038055;28;19932;-86
2024/04/07 00:38:34;;;;;;;;;;;19.50;99.90;;;;;;5053778;28;19921;-87
2024/04/07 00:41:00;;;;;;;;;;;19.50;99.90;;;;;;5047702;28;19921;-85
2024/04/07 00:43:26;;;;;;;;;;;19.50;99.90;;;;;;5051250;28;19920;-86
2024/04/07 00:45:53;;;;;;;;;;;19.50;99.90;;;;;;5053140;28;19913;-87
2024/04/07 00:48:18;;;;;;;;;;;19.50;99.90;;;;;;5055634;28;19919;-87
2024/04/07 00:50:47;;;;;;;;;;;19.50;99.90;;;;;;5040123;28;20008;-85
2024/04/07 00:53:13;;;;;;;;;;;19.50;99.90;;;;;;5036605;28;20008;-87
2024/04/07 00:55:39;;;;;;;;;;;19.50;99.90;;;;;;5049204;28;20308;-87
2024/04/07 00:58:05;;;;;;;;;;;19.50;99.90;;;;;;5051979;28;20004;-85
2024/04/07 01:00:31;;;;;;;;;;;19.50;99.90;;;;;;5032143;28;19944;-87
2024/04/07 01:02:57;;;;;;;;;;;19.50;99.90;;;;;;5053192;28;19974;-86
2024/04/07 01:05:22;;;;;;;;;;;19.50;99.90;;;;;;5042302;28;19913;-87
2024/04/07 01:07:48;;;;;;;;;;;19.50;99.90;;;;;;5045172;28;19917;-86
2024/04/07 01:10:14;;;;;;;;;;;19.50;99.90;;;;;;5043400;28;20394;-88
2024/04/07 01:12:50;;;;;;;;;;;19.50;99.90;;;;;;5042475;28;19921;-87
2024/04/07 01:15:15;;;;;;;;;;;19.50;99.90;;;;;;5041466;28;19913;-86
2024/04/07 01:17:41;;;;;;;;;;;19.50;99.90;;;;;;5042836;28;19924;-86
2024/04/07 01:20:08;;;;;;;;;;;19.50;99.90;;;;;;5021067;28;20412;-86
2024/04/07 01:22:34;;;;;;;;;;;19.40;99.90;;;;;;5041855;28;19913;-86
2024/04/07 01:24:59;;;;;;;;;;;19.40;99.90;;;;;;5039816;28;19931;-88
2024/04/07 01:27:25;;;;;;;;;;;19.40;99.90;;;;;;5044764;28;20007;-87
2024/04/07 01:29:50;;;;;;;;;;;19.40;99.90;;;;;;5048217;28;20688;-87
2024/04/07 01:32:16;;;;;;;;;;;19.40;99.90;;;;;;5048734;28;19956;-87
2024/04/07 01:34:41;;;;;;;;;;;19.30;99.90;;;;;;5050288;28;19917;-87
2024/04/07 01:37:07;;;;;;;;;;;19.30;99.90;;;;;;5032114;28;20423;-86
2024/04/07 01:39:32;;;;;;;;;;;19.30;99.90;;;;;;5045928;28;19920;-87
2024/04/07 01:41:57;;;;;;;;;;;19.30;99.90;;;;;;5028929;28;19913;-86
2024/04/07 01:44:23;;;;;;;;;;;19.30;99.90;;;;;;5043359;28;20007;-87
2024/04/07 01:46:48;;;;;;;;;;;19.30;99.90;;;;;;5031069;28;19920;-87
2024/04/07 01:49:14;;;;;;;;;;;19.30;99.90;;;;;;5045494;28;20406;-87
2024/04/07 01:51:39;;;;;;;;;;;19.30;99.90;;;;;;5022866;28;19921;-87
2024/04/07 01:54:05;;;;;;;;;;;19.20;99.90;;;;;;5030440;28;19913;-86
2024/04/07 01:56:31;;;;;;;;;;;19.20;99.90;;;;;;5045752;28;19979;-87
2024/04/07 01:58:57;;;;;;;;;;;19.20;99.90;;;;;;5051741;28;19924;-88
2024/04/07 02:01:22;;;;;;;;;;;19.20;99.90;;;;;;5048798;28;19995;-87
2024/04/07 02:03:48;;;;;;;;;;;19.20;99.90;;;;;;5043875;28;19931;-86
2024/04/07 02:06:13;;;;;;;;;;;19.20;99.90;;;;;;5047216;28;20472;-87
2024/04/07 02:08:39;;;;;;;;;;;19.10;99.90;;;;;;5045341;28;19912;-87
2024/04/07 02:11:04;;;;;;;;;;;19.10;99.90;;;;;;5047298;28;20361;-88
2024/04/07 02:13:30;;;;;;;;;;;19.10;99.90;;;;;;5032090;28;19921;-86
2024/04/07 02:15:59;;;;;;;;;;;19.10;99.90;;;;;;5043911;28;19939;-85
2024/04/07 02:18:24;;;;;;;;;;;19.00;99.90;;;;;;5040728;28;19929;-87
2024/04/07 02:20:51;;;;;;;;;;;19.00;99.90;;;;;;5044556;28;19999;-87
2024/04/07 02:23:17;;;;;;;;;;;19.00;99.90;;;;;;5039752;28;19966;-88
2024/04/07 02:25:42;;;;;;;;;;;18.90;99.90;;;;;;5045295;28;19913;-86
2024/04/07 02:28:08;;;;;;;;;;;19.00;99.90;;;;;;5025444;28;19913;-86
2024/04/07 02:30:36;;;;;;;;;;;18.90;99.90;;;;;;5040520;28;19913;-87
2024/04/07 02:33:04;;;;;;;;;;;18.90;99.90;;;;;;5042161;28;19913;-87
2024/04/07 02:35:32;;;;;;;;;;;18.90;99.90;;;;;;5041813;28;19916;-84
2024/04/07 02:37:57;;;;;;;;;;;18.80;99.90;;;;;;5020110;28;19920;-85
2024/04/07 02:40:23;;;;;;;;;;;18.80;99.90;;;;;;5041975;28;19920;-86
2024/04/07 02:42:52;;;;;;;;;;;18.70;99.90;;;;;;5044148;28;19936;-85
2024/04/07 02:48:05;;;;;;;;;;;18.70;99.90;;;;;;5044435;28;19919;-88
2024/04/07 02:50:34;;;;;;;;;;;18.60;99.90;;;;;;5040874;28;19913;-87
2024/04/07 02:53:00;;;;;;;;;;;18.60;99.90;;;;;;5045818;28;19940;-87
2024/04/07 02:55:25;;;;;;;;;;;18.60;1.00;;;;;;5048998;28;19920;-85
2024/04/07 02:57:51;;;;;;;;;;;18.50;1.00;;;;;;5053528;28;19924;-87
2024/04/07 03:00:17;;;;;;;;;;;18.50;1.00;;;;;;5050179;28;19916;-87
2024/04/07 03:02:46;;;;;;;;;;;18.50;1.00;;;;;;5048676;28;19913;-87
2024/04/07 03:05:12;;;;;;;;;;;18.40;1.00;;;;;;5054170;28;19951;-87
2024/04/07 03:07:38;;;;;;;;;;;18.40;1.00;;;;;;5047809;28;19913;-87
2024/04/07 03:10:04;;;;;;;;;;;18.40;1.00;;;;;;5050125;28;19912;-87
2024/04/07 03:12:30;;;;;;;;;;;18.40;1.00;;;;;;5049922;28;20432;-86
2024/04/07 03:14:56;;;;;;;;;;;18.40;1.00;;;;;;5049030;28;19912;-87
2024/04/07 03:17:22;;;;;;;;;;;18.30;1.00;;;;;;5051294;28;19920;-88
2024/04/07 03:19:47;;;;;;;;;;;18.30;1.00;;;;;;5052687;28;19925;-87
2024/04/07 03:22:13;;;;;;;;;;;18.30;1.00;;;;;;5048992;28;20002;-85
2024/04/07 03:24:39;;;;;;;;;;;18.30;1.00;;;;;;5052857;28;19920;-86
2024/04/07 03:27:05;;;;;;;;;;;18.30;1.00;;;;;;5052906;28;20406;-87
2024/04/07 03:29:31;;;;;;;;;;;18.30;1.00;;;;;;5048430;28;19912;-87
2024/04/07 03:31:56;;;;;;;;;;;18.20;1.00;;;;;;5029474;28;19913;-86
2024/04/07 03:34:25;;;;;;;;;;;18.20;1.00;;;;;;5034814;28;19913;-85
2024/04/07 03:36:50;;;;;;;;;;;18.20;1.00;;;;;;5051539;28;19928;-86
2024/04/07 03:39:16;;;;;;;;;;;18.20;1.00;;;;;;5041934;28;19917;-85
2024/04/07 03:41:41;;;;;;;;;;;18.10;1.00;;;;;;5032643;28;20016;-86
2024/04/07 03:44:08;;;;;;;;;;;18.10;1.00;;;;;;5052108;28;19932;-87
2024/04/07 03:46:33;;;;;;;;;;;18.10;1.00;;;;;;5051928;28;19916;-87
2024/04/07 03:48:59;;;;;;;;;;;18.00;1.00;;;;;;5037608;28;19938;-87
2024/04/07 03:51:24;;;;;;;;;;;18.00;1.00;;;;;;5045624;28;19976;-86
2024/04/07 03:53:50;;;;;;;;;;;18.00;1.00;;;;;;5054632;28;19917;-87
2024/04/07 03:56:15;;;;;;;;;;;18.00;1.00;;;;;;5056949;28;19912;-86
2024/04/07 03:58:41;;;;;;;;;;;17.90;1.00;;;;;;5039714;28;19983;-87
2024/04/07 04:01:06;;;;;;;;;;;17.90;1.00;;;;;;5050501;28;20272;-85
2024/04/07 04:03:32;;;;;;;;;;;17.90;1.00;;;;;;5045129;28;19928;-86
2024/04/07 04:05:59;;;;;;;;;;;17.90;1.00;;;;;;5040429;28;19920;-86
2024/04/07 04:08:24;;;;;;;;;;;17.80;1.00;;;;;;5047033;28;19935;-87
2024/04/07 04:10:50;;;;;;;;;;;17.80;1.00;;;;;;5047255;28;19976;-87
2024/04/07 04:13:16;;;;;;;;;;;17.80;1.00;;;;;;5051738;28;20302;-86
2024/04/07 04:15:42;;;;;;;;;;;17.70;1.00;;;;;;5045948;28;19913;-87
2024/04/07 04:18:09;;;;;;;;;;;17.70;1.00;;;;;;5050242;28;19996;-87
2024/04/07 04:20:38;;;;;;;;;;;17.70;1.00;;;;;;5025494;28;19913;-86
2024/04/07 04:23:04;;;;;;;;;;;17.70;1.00;;;;;;5048337;28;19913;-86
2024/04/07 04:25:29;;;;;;;;;;;17.70;1.00;;;;;;5026550;28;19912;-87
2024/04/07 04:27:55;;;;;;;;;;;17.60;1.00;;;;;;5048303;28;19912;-86
2024/04/07 04:30:20;;;;;;;;;;;17.60;1.00;;;;;;5049503;28;19977;-87
2024/04/07 04:32:49;;;;;;;;;;;17.60;1.00;;;;;;5034960;28;19912;-86
2024/04/07 04:35:15;;;;;;;;;;;17.50;1.00;;;;;;5044316;28;19958;-86
2024/04/07 04:37:40;;;;;;;;;;;17.50;1.00;;;;;;5049618;28;19926;-87
2024/04/07 04:40:08;;;;;;;;;;;17.50;1.00;;;;;;5048529;28;20325;-86
2024/04/07 04:42:34;;;;;;;;;;;17.50;1.00;;;;;;5044668;28;19934;-86
2024/04/07 04:45:00;;;;;;;;;;;17.40;1.00;;;;;;5028180;28;20441;-86
2024/04/07 04:47:26;;;;;;;;;;;17.40;1.00;;;;;;5048473;28;19917;-87
2024/04/07 04:49:52;;;;;;;;;;;17.40;1.00;;;;;;5048976;28;19913;-87
2024/04/07 04:52:17;;;;;;;;;;;17.40;1.00;;;;;;5051661;28;19939;-86
2024/04/07 04:54:43;;;;;;;;;;;17.40;99.90;;;;;;5044419;28;19913;-85
2024/04/07 04:57:08;;;;;;;;;;;17.40;99.90;;;;;;5044754;28;19913;-86
2024/04/07 04:59:34;;;;;;;;;;;17.30;99.90;;;;;;5023036;28;19917;-86
2024/04/07 05:01:59;;;;;;;;;;;17.30;99.90;;;;;;5044061;28;19920;-86
2024/04/07 05:04:25;;;;;;;;;;;17.30;99.90;;;;;;5048545;28;19966;-86
2024/04/07 05:06:51;;;;;;;;;;;17.30;99.90;;;;;;5041407;28;19940;-86
2024/04/07 05:09:16;;;;;;;;;;;17.20;99.90;;;;;;5045389;28;19963;-86
2024/04/07 05:11:42;;;;;;;;;;;17.20;99.90;;;;;;5044228;28;19943;-86
2024/04/07 05:14:07;;;;;;;;;;;17.20;99.90;;;;;;5043304;28;19947;-86
2024/04/07 05:16:33;;;;;;;;;;;17.20;99.90;;;;;;5044525;28;20006;-87
2024/04/07 05:18:59;;;;;;;;;;;17.20;99.90;;;;;;5045264;28;20023;-85
2024/04/07 05:21:24;;;;;;;;;;;17.20;99.90;;;;;;5045645;28;20294;-87
2024/04/07 05:23:49;;;;;;;;;;;17.20;99.90;;;;;;5041914;28;19920;-85
2024/04/07 05:26:18;;;;;;;;;;;17.30;99.90;;;;;;5044355;28;19984;-85
2024/04/07 05:28:44;;;;;;;;;;;17.30;99.90;;;;;;5047200;28;20428;-85
2024/04/07 05:31:13;;;;;;;;;;;17.30;1.00;;;;;;5044082;28;19913;-86
2024/04/07 05:33:42;;;;;;;;;;;17.30;1.00;;;;;;5046327;28;19917;-85
2024/04/07 05:36:08;;;;;;;;;;;17.20;1.00;;;;;;5028888;28;20310;-86
2024/04/07 05:38:37;;;;;;;;;;;17.20;1.00;;;;;;5042219;28;19927;-87
2024/04/07 05:41:03;;;;;;;;;;;17.20;1.00;;;;;;5042533;28;19996;-87
2024/04/07 05:43:29;;;;;;;;;;;17.20;1.00;;;;;;5042143;28;19917;-86
2024/04/07 05:45:56;;;;;;;;;;;17.20;1.00;;;;;;5041429;28;19913;-85
2024/04/07 05:48:22;;;;;;;;;;;17.30;1.00;;;;;;5047698;28;19920;-85
2024/04/07 05:50:47;;;;;;;;;;;17.30;1.00;;;;;;5050502;28;20361;-87
2024/04/07 05:53:13;;;;;;;;;;;17.40;1.00;;;;;;5050143;28;19917;-86
2024/04/07 05:55:38;;;;;;;;;;;17.50;1.00;;;;;;5051390;28;19954;-85
2024/04/07 05:58:04;;;;;;;;;;;17.70;1.00;;;;;;5034576;28;19955;-85
2024/04/07 06:00:34;;;;;;;;;;;17.90;1.00;;;;;;5056943;28;20349;-87
2024/04/07 06:03:01;;;;;;;;;;;18.10;1.00;;;;;;5052652;28;19913;-89
2024/04/07 06:05:26;;;;;;;;;;;18.50;1.00;;;;;;5051945;28;19960;-87
2024/04/07 06:07:52;;;;;;;;;;;19.00;1.00;;;;;;5038260;28;20366;-88
2024/04/07 06:10:17;;;;;;;;;;;19.60;1.00;;;;;;5052220;28;20039;-87
2024/04/07 06:12:43;;;;;;;;;;;19.50;1.00;;;;;;5052098;28;19959;-87
2024/04/07 06:15:09;;;;;;;;;;;19.20;1.00;;;;;;5052916;28;20368;-88
2024/04/07 06:17:34;;;;;;;;;;;18.90;1.00;;;;;;5051450;28;20011;-88
2024/04/07 06:20:00;;;;;;;;;;;18.80;1.00;;;;;;5032014;28;19975;-87
2024/04/07 06:22:26;;;;;;;;;;;18.80;1.00;;;;;;5054374;28;20302;-85
2024/04/07 06:24:52;;;;;;;;;;;18.90;1.00;;;;;;5046382;28;19955;-88
2024/04/07 06:27:18;;;;;;;;;;;19.00;1.00;;;;;;5038237;28;19913;-87
2024/04/07 06:29:44;;;;;;;;;;;19.30;1.00;;;;;;5053186;28;19913;-87
2024/04/07 06:32:09;;;;;;;;;;;19.60;1.00;;;;;;5049502;28;19958;-88
2024/04/07 06:34:34;;;;;;;;;;;20.00;99.90;;;;;;5031423;28;19913;-86
2024/04/07 06:37:00;;;;;;;;;;;21.40;99.90;;;;;;5042351;28;20328;-87
2024/04/07 06:39:25;;;;;;;;;;;23.20;99.90;;;;;;5044325;28;19923;-87
2024/04/07 06:41:51;;;;;;;;;;;23.60;99.90;;;;;;5046590;28;19971;-87
2024/04/07 06:44:16;;;;;;;;;;;23.80;99.90;;;;;;5040730;28;20385;-88
2024/04/07 06:46:42;;;;;;;;;;;24.20;99.90;;;;;;5031728;28;19912;-89
2024/04/07 06:49:07;;;;;;;;;;;23.80;99.90;;;;;;5039738;28;20354;-88
2024/04/07 06:51:33;;;;;;;;;;;23.00;99.90;;;;;;5040623;28;20385;-86
2024/04/07 06:53:58;;;;;;;;;;;22.50;99.90;;;;;;5048401;28;21105;-87
2024/04/07 06:56:24;;;;;;;;;;;22.30;99.90;;;;;;5044442;28;19996;-87
2024/04/07 06:58:49;;;;;;;;;;;22.00;99.90;;;;;;5044443;28;19921;-86
2024/04/07 07:01:15;;;;;;;;;;;21.70;99.90;;;;;;5042938;28;19953;-87
2024/04/07 07:03:42;;;;;;;;;;;21.50;99.90;;;;;;5040843;28;19916;-86
2024/04/07 07:06:08;;;;;;;;;;;21.20;99.90;;;;;;5044053;28;19914;-87
2024/04/07 07:08:34;;;;;;;;;;;21.40;99.90;;;;;;5049652;28;19913;-86
2024/04/07 07:10:59;;;;;;;;;;;22.40;99.90;;;;;;5043289;28;20055;-85
2024/04/07 07:13:26;;;;;;;;;;;22.30;99.90;;;;;;5027421;28;19920;-87
2024/04/07 07:15:51;;;;;;;;;;;21.80;99.90;;;;;;5050759;28;19944;-86
2024/04/07 07:18:16;;;;;;;;;;;21.40;99.90;;;;;;5046807;28;20023;-87
2024/04/07 07:20:42;;;;;;;;;;;21.00;99.90;;;;;;5051252;28;19921;-86
2024/04/07 07:23:07;;;;;;;;;;;20.60;99.90;;;;;;5045726;28;19999;-85
2024/04/07 07:25:33;;;;;;;;;;;20.30;99.90;;;;;;5044951;28;20392;-87
2024/04/07 07:27:58;;;;;;;;;;;20.10;99.90;;;;;;5050892;28;19913;-86
2024/04/07 07:30:24;;;;;;;;;;;19.90;99.90;;;;;;5041579;28;19939;-85
2024/04/07 07:32:50;;;;;;;;;;;19.70;99.90;;;;;;5047254;28;19912;-83
2024/04/07 07:35:16;;;;;;;;;;;19.60;1.00;;;;;;5049380;28;19934;-83
2024/04/07 07:37:41;;;;;;;;;;;19.50;1.00;;;;;;5027040;28;19935;-83
2024/04/07 07:40:07;;;;;;;;;;;19.40;1.00;;;;;;5033096;28;19970;-82
2024/04/07 07:42:33;;;;;;;;;;;19.40;1.00;;;;;;5043173;28;19988;-83
2024/04/07 07:44:58;;;;;;;;;;;19.40;1.00;;;;;;5041778;28;20016;-83
2024/04/07 07:47:24;;;;;;;;;;;19.50;1.00;;;;;;5043580;28;19944;-83
2024/04/07 07:49:49;;;;;;;;;;;19.80;99.90;;;;;;5043698;28;19917;-82
2024/04/07 07:52:15;;;;;;;;;;;19.90;99.90;;;;;;5048482;28;19959;-84
2024/04/07 07:54:40;;;;;;;;;;;20.00;99.90;;;;;;5042627;28;20507;-86
2024/04/07 07:57:06;;;;;;;;;;;20.20;99.90;;;;;;5046673;28;19934;-86
2024/04/07 07:59:31;;;;;;;;;;;20.40;99.90;;;;;;5046185;28;19952;-84
2024/04/07 08:01:57;;;;;;;;;;;20.70;99.90;;;;;;5043189;28;19928;-84
2024/04/07 08:04:22;;;;;;;;;;;21.00;99.90;;;;;;5028904;28;19905;-84
2024/04/07 08:06:47;;;;;;;;;;;21.30;99.90;;;;;;5044503;28;19967;-86
2024/04/07 08:09:13;;;;;;;;;;;21.60;99.90;;;;;;5039796;28;19927;-84
2024/04/07 08:11:38;;;;;;;;;;;22.30;99.90;;;;;;5044802;28;19909;-84
2024/04/07 08:14:04;;;;;;;;;;;22.80;99.90;;;;;;5049699;28;19927;-85
2024/04/07 08:16:29;;;;;;;;;;;23.20;99.90;;;;;;5044288;28;20461;-83
2024/04/07 08:18:55;;;;;;;;;;;23.70;99.90;;;;;;5043214;28;19908;-84
2024/04/07 08:21:20;;;;;;;;;;;24.30;99.90;;;;;;5043667;28;19913;-85
2024/04/07 08:23:47;;;;;;;;;;;25.00;99.90;;;;;;5044865;28;19978;-83
2024/04/07 08:26:13;;;;;;;;;;;25.00;99.90;;;;;;5043605;28;19920;-84
2024/04/07 08:28:38;;;;;;;;;;;25.20;99.90;;;;;;5053424;28;19923;-84
2024/04/07 08:31:04;;;;;;;;;;;25.50;99.90;;;;;;5033759;28;19912;-85
2024/04/07 08:33:29;;;;;;;;;;;25.90;99.90;;;;;;5031852;28;19909;-85
2024/04/07 08:35:55;;;;;;;;;;;26.50;99.90;;;;;;5043025;28;19906;-84
2024/04/07 08:38:20;;;;;;;;;;;27.40;99.90;;;;;;5044109;28;19913;-85
2024/04/07 08:40:47;;;;;;;;;;;28.70;99.90;;;;;;5044755;28;19908;-88
2024/04/07 08:43:12;;;;;;;;;;;30.70;99.90;;;;;;5036027;28;19916;-85
2024/04/07 08:45:39;;;;;;;;;;;32.20;99.90;;;;;;5054592;28;19905;-86
2024/04/07 08:48:06;;;;;;;;;;;32.10;99.90;;;;;;5034945;28;19909;-84
2024/04/07 08:50:31;;;;;;;;;;;32.30;99.90;;;;;;5051745;28;20625;-84
2024/04/07 08:52:57;;;;;;;;;;;32.20;99.90;;;;;;5047775;28;19916;-84
2024/04/07 08:55:23;;;;;;;;;;;31.40;99.90;;;;;;5051603;28;19955;-86
2024/04/07 08:57:49;;;;;;;;;;;30.40;99.90;;;;;;5056443;28;19916;-84
2024/04/07 09:00:15;;;;;;;;;;;30.10;99.90;;;;;;5058686;28;19917;-82
2024/04/07 09:02:41;;;;;;;;;;;30.30;99.90;;;;;;5035683;28;19924;-83
2024/04/07 09:05:06;;;;;;;;;;;30.20;99.90;;;;;;5053480;28;19913;-83
2024/04/07 09:07:32;;;;;;;;;;;29.60;99.90;;;;;;5034966;28;20302;-81
2024/04/07 09:09:57;;;;;;;;;;;29.10;99.90;;;;;;5037289;28;19919;-82
2024/04/07 09:12:23;;;;;;;;;;;29.10;99.90;;;;;;5042387;28;19935;-82
2024/04/07 09:14:49;;;;;;;;;;;29.10;99.90;;;;;;5045301;28;19912;-82
2024/04/07 09:17:14;;;;;;;;;;;28.50;99.90;;;;;;5032857;28;20047;-82
2024/04/07 09:19:40;;;;;;;;;;;28.20;99.90;;;;;;5053108;28;20015;-82
2024/04/07 09:22:06;;;;;;;;;;;28.70;99.90;;;;;;5054777;28;19909;-85
2024/04/07 09:24:32;;;;;;;;;;;30.10;99.90;;;;;;5054904;28;19967;-86
2024/04/07 09:26:59;;;;;;;;;;;31.30;99.90;;;;;;5036607;28;19909;-83
2024/04/07 09:29:34;;;;;;;;;;;32.50;99.90;;;;;;5054335;28;19917;-82
2024/04/07 09:32:00;;;;;;;;;;;32.70;99.90;;;;;;5050143;28;20008;-84
2024/04/07 09:34:25;;;;;;;;;;;32.60;99.90;;;;;;5049003;28;19955;-82
2024/04/07 09:36:52;;;;;;;;;;;32.30;99.90;;;;;;5052847;28;19916;-84
2024/04/07 09:39:18;;;;;;;;;;;32.80;99.90;;;;;;5049939;28;19920;-85
2024/04/07 09:41:46;;;;;;;;;;;33.30;99.90;;;;;;5036573;28;20008;-84
2024/04/07 09:44:19;;;;;;;;;;;33.70;99.90;;;;;;5053905;28;19920;-82
2024/04/07 09:46:45;;;;;;;;;;;33.30;99.90;;;;;;5053295;28;19919;-84
2024/04/07 09:49:11;;;;;;;;;;;32.20;99.90;;;;;;5045018;28;19922;-85
2024/04/07 09:51:48;;;;;;;;;;;31.30;99.90;;;;;;5050266;28;20452;-85
2024/04/07 09:54:39;;;;;;;;;;;30.70;99.90;;;;;;5032128;28;19928;-83
2024/04/07 09:57:06;;;;;;;;;;;30.30;99.90;;;;;;5035055;28;19912;-85
2024/04/07 09:59:31;;;;;;;;;;;30.40;99.90;;;;;;5053241;28;19944;-84
2024/04/07 10:01:57;;;;;;;;;;;30.00;99.90;;;;;;5051010;28;19912;-85
2024/04/07 10:04:25;;;;;;;;;;;29.40;99.90;;;;;;5054094;28;19913;-83
2024/04/07 10:06:51;;;;;;;;;;;28.80;99.90;;;;;;5052377;28;20385;-83
2024/04/07 10:09:17;;;;;;;;;;;28.60;99.90;;;;;;5052417;28;19920;-82
2024/04/07 10:11:47;;;;;;;;;;;28.40;99.90;;;;;;5034710;28;19909;-83
2024/04/07 10:14:16;;;;;;;;;;;28.20;99.90;;;;;;5052225;28;19917;-82
2024/04/07 10:16:45;;;;;;;;;;;28.00;99.90;;;;;;5052876;28;19920;-82
2024/04/07 10:19:12;;;;;;;;;;;27.80;99.90;;;;;;5032672;28;19921;-84
2024/04/07 10:21:38;;;;;;;;;;;27.90;99.90;;;;;;5050648;28;20394;-83
2024/04/07 10:24:04;;;;;;;;;;;28.30;99.90;;;;;;5054883;28;20358;-83
2024/04/07 10:26:30;;;;;;;;;;;28.80;99.90;;;;;;5037116;28;19913;-82
2024/04/07 10:28:56;;;;;;;;;;;29.20;99.90;;;;;;5055374;28;20367;-83
2024/04/07 10:31:25;;;;;;;;;;;29.60;99.90;;;;;;5053809;28;19919;-84
2024/04/07 10:33:51;;;;;;;;;;;29.80;99.90;;;;;;5053601;28;20322;-84
2024/04/07 10:36:18;;;;;;;;;;;29.70;99.90;;;;;;5053321;28;20323;-83
2024/04/07 10:38:52;;;;;;;;;;;29.50;99.90;;;;;;5046374;28;19917;-82
2024/04/07 10:41:22;;;;;;;;;;;29.30;99.90;;;;;;5054448;28;19919;-85
2024/04/07 10:43:47;;;;;;;;;;;29.30;99.90;;;;;;5055225;28;19912;-86
2024/04/07 10:46:13;;;;;;;;;;;29.50;99.90;;;;;;5052412;28;19955;-83
2024/04/07 10:48:38;;;;;;;;;;;29.60;99.90;;;;;;5054429;28;19920;-83
2024/04/07 10:51:06;;;;;;;;;;;29.90;99.90;;;;;;5035806;28;20362;-84
2024/04/07 10:53:32;;;;;;;;;;;30.70;99.90;;;;;;5036356;28;20553;-83
2024/04/07 10:55:57;;;;;;;;;;;31.90;99.90;;;;;;5053538;28;19908;-82
2024/04/07 10:58:23;;;;;;;;;;;32.90;99.90;;;;;;5037499;28;19924;-83
2024/04/07 11:00:48;;;;;;;;;;;33.60;99.90;;;;;;5053649;28;19951;-86
2024/04/07 11:03:15;;;;;;;;;;;34.40;99.90;;;;;;5052980;28;19978;-84
2024/04/07 11:05:41;;;;;;;;;;;34.90;99.90;;;;;;5034729;28;19917;-84
2024/04/07 11:08:06;;;;;;;;;;;35.20;99.90;;;;;;5053565;28;20043;-85
2024/04/07 11:10:33;;;;;;;;;;;35.30;99.90;;;;;;5049915;28;19952;-84
2024/04/07 11:13:02;;;;;;;;;;;34.70;99.90;;;;;;5053276;28;19913;-84
2024/04/07 11:15:28;;;;;;;;;;;33.60;99.90;;;;;;5035606;28;19913;-83
2024/04/07 11:17:53;;;;;;;;;;;32.70;99.90;;;;;;5052896;28;20283;-85
2024/04/07 11:20:19;;;;;;;;;;;32.10;99.90;;;;;;5052891;28;19919;-85
2024/04/07 11:22:44;;;;;;;;;;;31.60;99.90;;;;;;5034330;28;20418;-83
2024/04/07 11:25:10;;;;;;;;;;;31.10;99.90;;;;;;5034223;28;19913;-84
2024/04/07 11:27:36;;;;;;;;;;;30.70;99.90;;;;;;5053698;28;19909;-82
2024/04/07 11:30:02;;;;;;;;;;;30.70;99.90;;;;;;5045610;28;19909;-84
2024/04/07 11:32:28;;;;;;;;;;;31.20;99.90;;;;;;5054012;28;19916;-85
2024/04/07 11:34:53;;;;;;;;;;;32.20;99.90;;;;;;5054110;28;20425;-83
2024/04/07 11:37:19;;;;;;;;;;;32.60;99.90;;;;;;5033067;28;19916;-84
2024/04/07 11:39:50;;;;;;;;;;;33.00;99.90;;;;;;5050300;28;19916;-84
2024/04/07 11:42:15;;;;;;;;;;;32.70;99.90;;;;;;5053720;28;19909;-84
2024/04/07 11:44:41;;;;;;;;;;;32.00;99.90;;;;;;5052830;28;20430;-84
2024/04/07 11:47:06;;;;;;;;;;;31.70;99.90;;;;;;5033613;28;20000;-85
2024/04/07 11:49:33;;;;;;;;;;;31.60;99.90;;;;;;5053354;28;19908;-83
2024/04/07 11:51:59;;;;;;;;;;;31.10;99.90;;;;;;5038967;28;20363;-86
2024/04/07 11:54:24;;;;;;;;;;;31.10;99.90;;;;;;5057262;28;19936;-83
2024/04/07 11:56:51;;;;;;;;;;;32.00;99.90;;;;;;5055740;28;19952;-87
2024/04/07 11:59:17;;;;;;;;;;;32.40;99.90;;;;;;5058085;28;19917;-83
2024/04/07 12:01:42;;;;;;;;;;;32.70;99.90;;;;;;5032221;28;19966;-83
2024/04/07 12:04:08;;;;;;;;;;;32.80;99.90;;;;;;5053796;28;20378;-83
2024/04/07 12:06:33;;;;;;;;;;;33.10;99.90;;;;;;5053061;28;20337;-84
2024/04/07 12:08:59;;;;;;;;;;;33.40;99.90;;;;;;5052866;28;19912;-84
2024/04/07 12:11:24;;;;;;;;;;;33.60;99.90;;;;;;5060948;28;20006;-83
2024/04/07 12:13:50;;;;;;;;;;;33.80;99.90;;;;;;5053834;28;19966;-83
2024/04/07 12:16:15;;;;;;;;;;;34.00;99.90;;;;;;5054922;28;19909;-84
2024/04/07 12:18:43;;;;;;;;;;;34.10;99.90;;;;;;5054052;28;20341;-84
2024/04/07 12:21:09;;;;;;;;;;;34.20;99.90;;;;;;5046526;28;19919;-83
2024/04/07 12:23:34;;;;;;;;;;;34.30;99.90;;;;;;5050573;28;19996;-86
2024/04/07 12:26:00;;;;;;;;;;;34.20;99.90;;;;;;5044152;28;19913;-86
2024/04/07 12:28:25;;;;;;;;;;;34.10;99.90;;;;;;5056463;28;19915;-83
2024/04/07 12:30:53;;;;;;;;;;;34.10;99.90;;;;;;5052183;28;19964;-83
2024/04/07 12:33:18;;;;;;;;;;;33.90;99.90;;;;;;5050753;28;19970;-83
2024/04/07 12:35:44;;;;;;;;;;;33.60;99.90;;;;;;5051641;28;19913;-86
2024/04/07 12:38:09;;;;;;;;;;;33.30;99.90;;;;;;5052175;28;19920;-83
2024/04/07 12:40:35;;;;;;;;;;;33.10;99.90;;;;;;5048810;28;19931;-87
2024/04/07 12:43:01;;;;;;;;;;;32.90;99.90;;;;;;5038024;28;19912;-84
2024/04/07 12:45:27;;;;;;;;;;;32.90;99.90;;;;;;5029677;28;19912;-83
2024/04/07 12:47:53;;;;;;;;;;;32.90;99.90;;;;;;5037863;28;20308;-84
2024/04/07 12:50:18;;;;;;;;;;;32.80;99.90;;;;;;5046699;28;19987;-84
2024/04/07 12:52:47;;;;;;;;;;;32.80;99.90;;;;;;5052138;28;19995;-84
2024/04/07 12:55:13;;;;;;;;;;;32.50;99.90;;;;;;5054341;28;19909;-84
2024/04/07 12:57:40;;;;;;;;;;;32.30;99.90;;;;;;5054503;28;19947;-85
2024/04/07 13:00:06;;;;;;;;;;;31.80;99.90;;;;;;5054503;28;19983;-86
2024/04/07 13:02:32;;;;;;;;;;;31.50;99.90;;;;;;5054124;28;20399;-84
2024/04/07 13:04:58;;;;;;;;;;;31.60;99.90;;;;;;5056084;28;20390;-84
2024/04/07 13:07:23;;;;;;;;;;;31.80;99.90;;;;;;5048753;28;19916;-83
2024/04/07 13:09:48;;;;;;;;;;;32.00;99.90;;;;;;5044824;28;20000;-84
2024/04/07 13:12:14;;;;;;;;;;;31.90;99.90;;;;;;5058205;28;19909;-84
2024/04/07 13:14:40;;;;;;;;;;;32.00;99.90;;;;;;5056190;28;19951;-85
2024/04/07 13:17:05;;;;;;;;;;;31.80;99.90;;;;;;5057388;28;19909;-85
2024/04/07 13:19:31;;;;;;;;;;;31.40;99.90;;;;;;5038326;28;20367;-86
2024/04/07 13:21:56;;;;;;;;;;;31.20;99.90;;;;;;5045315;28;19912;-84
2024/04/07 13:24:22;;;;;;;;;;;31.00;99.90;;;;;;5040906;28;19999;-85
2024/04/07 13:26:47;;;;;;;;;;;30.80;99.90;;;;;;5026052;28;19913;-84
2024/04/07 13:29:14;;;;;;;;;;;30.60;99.90;;;;;;5056535;28;20310;-83
2024/04/07 13:31:39;;;;;;;;;;;30.90;99.90;;;;;;5042012;28;20396;-83
2024/04/07 13:34:05;;;;;;;;;;;31.00;99.90;;;;;;5047522;28;19920;-82
2024/04/07 13:36:30;;;;;;;;;;;31.00;99.90;;;;;;5035291;28;19952;-83
2024/04/07 13:38:56;;;;;;;;;;;30.90;99.90;;;;;;5051853;28;19943;-86
2024/04/07 13:41:21;;;;;;;;;;;30.60;99.90;;;;;;5044690;28;20367;-83
2024/04/07 13:43:47;;;;;;;;;;;30.30;99.90;;;;;;5042363;28;19956;-81
2024/04/07 13:46:13;;;;;;;;;;;30.10;99.90;;;;;;5051011;28;19981;-86
2024/04/07 13:48:38;;;;;;;;;;;29.70;99.90;;;;;;5051011;28;19987;-83
2024/04/07 13:51:04;;;;;;;;;;;29.40;99.90;;;;;;5047086;28;19944;-83
2024/04/07 13:53:30;;;;;;;;;;;29.00;99.90;;;;;;5054884;28;19917;-83
2024/04/07 13:55:55;;;;;;;;;;;28.50;99.90;;;;;;5055308;28;19960;-83
2024/04/07 13:58:21;;;;;;;;;;;28.20;99.90;;;;;;5047208;28;19986;-84
2024/04/07 14:00:46;;;;;;;;;;;28.00;99.90;;;;;;5035764;28;19972;-84
2024/04/07 14:03:12;;;;;;;;;;;27.90;99.90;;;;;;5053433;28;19917;-83
2024/04/07 14:05:37;;;;;;;;;;;27.70;99.90;;;;;;5052853;28;19947;-82
2024/04/07 14:08:04;;;;;;;;;;;27.60;99.90;;;;;;5054834;28;20272;-84
2024/04/07 14:10:30;;;;;;;;;;;27.30;99.90;;;;;;5055281;28;19924;-83
2024/04/07 14:12:56;;;;;;;;;;;27.00;99.90;;;;;;5054552;28;19909;-85
2024/04/07 14:15:21;;;;;;;;;;;26.80;99.90;;;;;;5040710;28;25164;-82
2024/04/07 14:17:47;;;;;;;;;;;26.60;99.90;;;;;;5045772;28;19908;-82